createdAt,value
2017-11-27T00:00:53.888Z,11.87
2017-11-27T00:03:21.384Z,11.60
2017-11-27T00:05:49.193Z,9.80
2017-11-27T00:08:16.688Z,13.63
2017-11-27T00:10:44.193Z,10.10
2017-11-27T00:13:11.875Z,7.40
2017-11-27T00:15:39.376Z,23.70
2017-11-27T00:18:07.093Z,10.80
2017-11-27T00:20:34.599Z,8.20
2017-11-27T00:23:02.085Z,14.50
2017-11-27T00:25:29.748Z,12.00
2017-11-27T00:27:57.238Z,10.70
2017-11-27T00:30:24.732Z,10.63
2017-11-27T00:32:52.238Z,5.33
2017-11-27T00:35:19.725Z,3.30
2017-11-27T00:37:47.324Z,11.63
2017-11-27T00:40:14.816Z,10.30
2017-11-27T00:42:42.322Z,10.13
2017-11-27T00:45:09.816Z,8.97
2017-11-27T00:47:38.108Z,9.13
2017-11-27T00:50:05.602Z,16.83
2017-11-27T00:52:33.325Z,13.27
2017-11-27T00:55:00.827Z,16.70
2017-11-27T00:57:28.338Z,17.33
2017-11-27T00:59:55.833Z,19.40
2017-11-27T01:02:24.092Z,9.63
2017-11-27T01:04:51.597Z,37.57
2017-11-27T01:07:19.296Z,13.73
2017-11-27T01:09:46.793Z,12.33
2017-11-27T01:12:14.308Z,13.13
2017-11-27T01:14:41.970Z,10.90
2017-11-27T01:17:09.729Z,8.73
2017-11-27T01:19:37.502Z,10.37
2017-11-27T01:22:04.992Z,13.50
2017-11-27T01:24:32.497Z,12.70
2017-11-27T01:26:59.997Z,13.33
2017-11-27T01:29:27.630Z,17.70
2017-11-27T01:31:55.123Z,16.97
2017-11-27T01:34:22.837Z,28.17
2017-11-27T01:36:50.614Z,13.63
2017-11-27T01:39:18.133Z,14.60
2017-11-27T01:41:45.625Z,22.07
2017-11-27T01:44:13.555Z,17.70
2017-11-27T01:46:41.369Z,27.03
2017-11-27T01:49:09.121Z,20.23
2017-11-27T01:51:36.885Z,18.90
2017-11-27T01:54:04.395Z,19.07
2017-11-27T01:56:31.892Z,18.03
2017-11-27T01:58:59.389Z,19.37
2017-11-27T02:01:26.897Z,20.67
2017-11-27T02:03:54.481Z,19.67
2017-11-27T02:06:22.934Z,20.50
2017-11-27T02:08:50.612Z,13.33
2017-11-27T02:11:18.134Z,16.03
2017-11-27T02:13:45.797Z,11.73
2017-11-27T02:16:13.313Z,22.13
2017-11-27T02:18:40.805Z,16.80
2017-11-27T02:21:08.518Z,12.63
2017-11-27T02:23:36.009Z,20.70
2017-11-27T02:26:03.502Z,14.93
2017-11-27T02:28:31.197Z,25.53
2017-11-27T02:30:58.691Z,10.97
2017-11-27T02:33:26.193Z,21.93
2017-11-27T02:35:54.049Z,21.10
2017-11-27T02:38:22.859Z,21.63
2017-11-27T02:40:50.355Z,16.13
2017-11-27T02:43:17.873Z,32.10
2017-11-27T02:45:45.366Z,19.30
2017-11-27T02:48:14.337Z,18.87
2017-11-27T02:50:41.980Z,14.67
2017-11-27T02:53:09.761Z,20.07
2017-11-27T02:55:37.268Z,22.57
2017-11-27T02:58:04.773Z,15.03
2017-11-27T03:00:32.860Z,11.90
2017-11-27T03:03:00.518Z,13.87
2017-11-27T03:05:28.257Z,16.10
2017-11-27T03:07:56.022Z,14.83
2017-11-27T03:10:23.781Z,19.70
2017-11-27T03:12:51.687Z,19.30
2017-11-27T03:15:20.237Z,16.70
2017-11-27T03:17:47.739Z,18.73
2017-11-27T03:20:15.457Z,28.37
2017-11-27T03:22:44.069Z,21.00
2017-11-27T03:25:11.598Z,25.37
2017-11-27T03:27:39.356Z,24.93
2017-11-27T03:30:06.860Z,23.80
2017-11-27T03:32:34.551Z,28.93
2017-11-27T03:35:02.062Z,24.33
2017-11-27T03:37:29.551Z,20.80
2017-11-27T03:39:57.075Z,20.13
2017-11-27T03:42:24.577Z,17.53
2017-11-27T03:44:52.119Z,15.53
2017-11-27T03:47:19.635Z,24.43
2017-11-27T03:49:47.128Z,11.70
2017-11-27T03:52:14.737Z,28.00
2017-11-27T03:54:42.485Z,19.80
2017-11-27T03:57:10.064Z,22.33
2017-11-27T03:59:37.565Z,16.60
2017-11-27T04:02:05.080Z,24.00
2017-11-27T04:04:32.576Z,22.10
2017-11-27T04:07:01.121Z,24.40
2017-11-27T04:09:28.628Z,28.83
2017-11-27T04:11:56.341Z,35.23
2017-11-27T04:14:23.846Z,26.10
2017-11-27T04:16:51.351Z,30.23
2017-11-27T04:19:18.856Z,21.90
2017-11-27T04:21:47.397Z,32.00
2017-11-27T04:24:15.165Z,32.70
2017-11-27T04:26:42.661Z,31.50
2017-11-27T04:29:10.169Z,20.40
2017-11-27T04:31:37.669Z,35.73
2017-11-27T04:34:06.134Z,30.83
2017-11-27T04:36:33.636Z,19.40
2017-11-27T04:39:01.433Z,21.40
2017-11-27T04:41:28.925Z,19.67
2017-11-27T04:43:56.649Z,29.03
2017-11-27T04:46:24.148Z,26.60
2017-11-27T04:48:51.649Z,37.43
2017-11-27T04:51:19.159Z,25.40
2017-11-27T04:53:46.785Z,33.40
2017-11-27T04:56:14.288Z,29.97
2017-11-27T04:58:41.965Z,40.30
2017-11-27T05:01:09.517Z,22.00
2017-11-27T05:03:37.111Z,31.60
2017-11-27T05:06:04.694Z,24.27
2017-11-27T05:08:32.463Z,29.43
2017-11-27T05:11:01.482Z,26.03
2017-11-27T05:13:28.981Z,39.87
2017-11-27T05:15:56.477Z,28.73
2017-11-27T05:18:24.117Z,24.00
2017-11-27T05:20:51.613Z,26.63
2017-11-27T05:23:19.313Z,24.37
2017-11-27T05:25:46.802Z,25.70
2017-11-27T05:28:14.548Z,20.27
2017-11-27T05:30:42.045Z,24.27
2017-11-27T05:33:10.058Z,31.33
2017-11-27T05:35:37.666Z,27.40
2017-11-27T05:38:05.862Z,23.27
2017-11-27T05:40:33.357Z,22.30
2017-11-27T05:43:00.857Z,28.33
2017-11-27T05:45:28.362Z,32.97
2017-11-27T05:47:58.021Z,30.03
2017-11-27T05:50:25.511Z,28.73
2017-11-27T05:52:53.466Z,41.87
2017-11-27T05:55:20.973Z,25.67
2017-11-27T05:57:48.598Z,24.80
2017-11-27T06:00:16.093Z,28.93
2017-11-27T06:02:43.589Z,25.63
2017-11-27T06:05:11.333Z,23.67
2017-11-27T06:07:38.820Z,23.27
2017-11-27T06:10:06.357Z,24.27
2017-11-27T06:12:33.984Z,26.37
2017-11-27T06:15:01.749Z,28.30
2017-11-27T06:17:29.245Z,20.90
2017-11-27T06:19:56.969Z,25.03
2017-11-27T06:22:24.468Z,19.30
2017-11-27T06:24:52.206Z,22.07
2017-11-27T06:27:19.697Z,35.47
2017-11-27T06:29:47.392Z,23.47
2017-11-27T06:32:15.173Z,29.87
2017-11-27T06:34:42.673Z,23.87
2017-11-27T06:37:10.354Z,28.03
2017-11-27T06:39:38.158Z,28.83
2017-11-27T06:42:05.924Z,29.77
2017-11-27T06:44:33.430Z,28.90
2017-11-27T06:47:01.147Z,25.10
2017-11-27T06:49:28.660Z,19.90
2017-11-27T06:51:56.367Z,40.07
2017-11-27T06:54:23.877Z,32.73
2017-11-27T06:56:51.398Z,25.70
2017-11-27T06:59:18.889Z,23.73
2017-11-27T07:01:47.161Z,23.87
2017-11-27T07:04:14.667Z,23.93
2017-11-27T07:06:42.161Z,21.30
2017-11-27T07:09:10.166Z,21.57
2017-11-27T07:11:37.834Z,21.33
2017-11-27T07:14:05.354Z,26.33
2017-11-27T07:16:33.055Z,24.70
2017-11-27T07:19:00.845Z,23.50
2017-11-27T07:21:28.869Z,15.83
2017-11-27T07:23:56.369Z,29.00
2017-11-27T07:26:23.868Z,19.90
2017-11-27T07:28:51.390Z,25.17
2017-11-27T07:31:19.005Z,21.47
2017-11-27T07:33:46.519Z,28.37
2017-11-27T07:36:15.800Z,28.90
2017-11-27T07:38:48.909Z,22.53
2017-11-27T07:41:16.404Z,29.70
2017-11-27T07:43:44.010Z,26.50
2017-11-27T07:46:11.768Z,28.40
2017-11-27T07:48:39.272Z,16.10
2017-11-27T07:51:06.772Z,19.90
2017-11-27T07:53:34.449Z,21.57
2017-11-27T07:56:02.478Z,26.10
2017-11-27T07:58:30.004Z,27.37
2017-11-27T08:00:57.614Z,11.00
2017-11-27T08:03:25.105Z,24.83
2017-11-27T08:05:52.603Z,20.93
2017-11-27T08:08:20.110Z,20.87
2017-11-27T08:10:47.601Z,22.17
2017-11-27T08:13:15.118Z,19.87
2017-11-27T08:15:42.781Z,22.10
2017-11-27T08:18:10.545Z,20.07
2017-11-27T08:20:38.309Z,23.47
2017-11-27T08:23:05.822Z,16.43
2017-11-27T08:25:33.328Z,26.87
2017-11-27T08:28:00.959Z,24.53
2017-11-27T08:30:28.466Z,23.23
2017-11-27T08:32:56.210Z,14.27
2017-11-27T08:35:23.772Z,35.13
2017-11-27T08:37:51.430Z,33.40
2017-11-27T08:40:18.960Z,27.17
2017-11-27T08:42:46.650Z,22.33
2017-11-27T08:45:14.154Z,24.27
2017-11-27T08:47:41.888Z,22.23
2017-11-27T08:50:09.386Z,24.33
2017-11-27T08:52:36.888Z,25.10
2017-11-27T08:55:04.393Z,27.33
2017-11-27T08:57:32.792Z,24.03
2017-11-27T09:00:01.094Z,29.07
2017-11-27T09:02:28.825Z,41.20
2017-11-27T09:04:56.342Z,25.80
2017-11-27T09:07:23.853Z,28.00
2017-11-27T09:09:51.434Z,21.60
2017-11-27T09:12:18.949Z,31.13
2017-11-27T09:14:46.485Z,27.30
2017-11-27T09:17:14.757Z,25.37
2017-11-27T09:19:42.269Z,32.67
2017-11-27T09:22:09.954Z,21.40
2017-11-27T09:24:37.500Z,29.67
2017-11-27T09:27:05.071Z,27.73
2017-11-27T09:29:32.580Z,22.80
2017-11-27T09:32:00.195Z,20.07
2017-11-27T09:34:27.685Z,19.90
2017-11-27T09:36:56.177Z,34.63
2017-11-27T09:39:23.673Z,28.80
2017-11-27T09:41:51.194Z,23.60
2017-11-27T09:44:18.697Z,26.63
2017-11-27T09:46:46.231Z,21.17
2017-11-27T09:49:13.753Z,24.97
2017-11-27T09:51:41.869Z,18.37
2017-11-27T09:54:09.377Z,18.10
2017-11-27T09:56:36.903Z,15.80
2017-11-27T09:59:04.402Z,19.33
2017-11-27T10:01:32.930Z,23.13
2017-11-27T10:04:00.729Z,27.03
2017-11-27T10:06:28.560Z,24.73
2017-11-27T10:08:56.054Z,24.90
2017-11-27T10:11:23.565Z,16.90
2017-11-27T10:13:51.189Z,14.87
2017-11-27T10:16:18.693Z,15.00
2017-11-27T10:18:47.138Z,22.37
2017-11-27T10:21:14.741Z,18.40
2017-11-27T10:23:42.264Z,18.13
2017-11-27T10:26:10.651Z,24.03
2017-11-27T10:28:38.162Z,13.50
2017-11-27T10:31:06.736Z,10.70
2017-11-27T10:33:34.289Z,17.37
2017-11-27T10:36:01.774Z,17.50
2017-11-27T10:38:30.047Z,11.90
2017-11-27T10:40:57.553Z,17.90
2017-11-27T10:43:25.056Z,13.83
2017-11-27T10:45:53.447Z,12.17
2017-11-27T10:48:21.705Z,10.83
2017-11-27T10:50:49.205Z,10.37
2017-11-27T10:53:16.716Z,14.07
2017-11-27T10:55:44.985Z,12.23
2017-11-27T10:58:12.712Z,14.03
2017-11-27T11:00:45.903Z,11.03
2017-11-27T11:03:13.404Z,14.23
2017-11-27T11:05:40.905Z,12.20
2017-11-27T11:08:08.404Z,9.97
2017-11-27T11:10:35.947Z,9.67
2017-11-27T11:13:03.613Z,7.43
2017-11-27T11:15:32.052Z,10.70
2017-11-27T11:17:59.579Z,10.57
2017-11-27T11:20:27.065Z,4.40
2017-11-27T11:22:54.602Z,11.00
2017-11-27T11:25:22.092Z,8.80
2017-11-27T11:27:49.638Z,13.50
2017-11-27T11:30:17.197Z,12.37
2017-11-27T11:32:44.766Z,9.30
2017-11-27T11:35:12.263Z,11.30
2017-11-27T11:37:39.973Z,5.90
2017-11-27T11:40:07.487Z,11.63
2017-11-27T11:42:35.002Z,8.73
2017-11-27T11:45:02.696Z,12.30
2017-11-27T11:47:30.204Z,10.50
2017-11-27T11:49:57.774Z,11.07
2017-11-27T11:52:25.293Z,6.90
2017-11-27T11:54:52.807Z,7.53
2017-11-27T11:57:20.307Z,8.50
2017-11-27T11:59:47.820Z,9.70
2017-11-27T12:02:15.293Z,4.00
2017-11-27T12:04:42.797Z,3.87
2017-11-27T12:07:11.053Z,4.10
2017-11-27T12:09:38.556Z,16.40
2017-11-27T12:12:06.081Z,9.83
2017-11-27T12:14:33.613Z,6.87
2017-11-27T12:17:01.094Z,5.90
2017-11-27T12:19:28.598Z,2.27
2017-11-27T12:21:56.089Z,6.43
2017-11-27T12:24:24.457Z,4.93
2017-11-27T12:26:51.952Z,5.57
2017-11-27T12:29:19.465Z,4.43
2017-11-27T12:31:46.966Z,2.40
2017-11-27T12:34:15.225Z,5.83
2017-11-27T12:36:42.736Z,4.50
2017-11-27T12:39:10.253Z,7.07
2017-11-27T12:41:38.538Z,5.10
2017-11-27T12:44:06.244Z,1.67
2017-11-27T12:46:33.742Z,2.93
2017-11-27T12:49:01.257Z,2.20
2017-11-27T12:51:28.925Z,4.00
2017-11-27T12:53:56.685Z,1.30
2017-11-27T12:56:25.414Z,4.17
2017-11-27T12:58:52.911Z,1.77
2017-11-27T13:01:20.438Z,2.70
2017-11-27T13:03:48.727Z,3.63
2017-11-27T13:06:16.953Z,1.70
2017-11-27T13:08:44.530Z,3.53
2017-11-27T13:11:12.265Z,1.63
2017-11-27T13:13:39.782Z,1.30
2017-11-27T13:16:07.441Z,4.70
2017-11-27T13:18:35.276Z,4.40
2017-11-27T13:21:02.797Z,3.00
2017-11-27T13:23:30.277Z,2.73
2017-11-27T13:25:58.436Z,2.77
2017-11-27T13:28:25.922Z,1.80
2017-11-27T13:30:53.418Z,1.40
2017-11-27T13:33:21.522Z,3.10
2017-11-27T13:35:49.183Z,3.70
2017-11-27T13:38:16.701Z,1.70
2017-11-27T13:40:44.194Z,3.57
2017-11-27T13:43:11.959Z,1.63
2017-11-27T13:45:39.481Z,2.03
2017-11-27T13:48:06.977Z,3.57
2017-11-27T13:50:34.492Z,2.33
2017-11-27T13:53:02.750Z,2.40
2017-11-27T13:55:30.302Z,4.23
2017-11-27T13:57:57.811Z,2.00
2017-11-27T14:00:25.426Z,4.13
2017-11-27T14:02:52.984Z,4.87
2017-11-27T14:05:21.257Z,1.87
2017-11-27T14:07:48.756Z,2.50
2017-11-27T14:10:16.241Z,2.33
2017-11-27T14:12:43.858Z,2.60
2017-11-27T14:15:11.355Z,2.57
2017-11-27T14:17:38.978Z,2.77
2017-11-27T14:20:07.495Z,6.60
2017-11-27T14:22:35.263Z,2.50
2017-11-27T14:25:02.776Z,3.53
2017-11-27T14:27:30.454Z,3.33
2017-11-27T14:29:58.573Z,3.63
2017-11-27T14:32:26.389Z,4.00
2017-11-27T14:34:53.883Z,6.63
2017-11-27T14:37:21.407Z,4.07
2017-11-27T14:39:48.896Z,7.40
2017-11-27T14:42:16.421Z,8.40
2017-11-27T14:44:44.212Z,6.80
2017-11-27T14:47:11.740Z,5.97
2017-11-27T14:49:39.236Z,5.37
2017-11-27T14:52:07.054Z,4.47
2017-11-27T14:54:35.305Z,4.20
2017-11-27T14:57:02.821Z,4.53
2017-11-27T14:59:30.317Z,4.90
2017-11-27T15:01:58.866Z,5.30
2017-11-27T15:04:27.063Z,4.73
2017-11-27T15:06:54.558Z,5.63
2017-11-27T15:09:22.070Z,9.97
2017-11-27T15:11:49.612Z,5.80
2017-11-27T15:14:17.113Z,8.17
2017-11-27T15:16:44.622Z,9.27
2017-11-27T15:19:12.297Z,6.93
2017-11-27T15:21:40.044Z,5.93
2017-11-27T15:24:07.552Z,8.50
2017-11-27T15:26:35.976Z,7.00
2017-11-27T15:29:03.483Z,11.57
2017-11-27T15:31:31.106Z,7.53
2017-11-27T15:33:58.834Z,7.13
2017-11-27T15:36:26.350Z,8.87
2017-11-27T15:38:54.172Z,5.40
2017-11-27T15:41:21.653Z,9.73
2017-11-27T15:43:49.183Z,7.60
2017-11-27T15:46:16.678Z,8.47
2017-11-27T15:48:44.192Z,9.33
2017-11-27T15:51:11.686Z,10.47
2017-11-27T15:53:39.287Z,11.13
2017-11-27T15:56:07.546Z,8.90
2017-11-27T15:58:35.286Z,10.07
2017-11-27T16:01:02.793Z,6.33
2017-11-27T16:03:30.301Z,11.17
2017-11-27T16:05:57.926Z,12.33
2017-11-27T16:08:26.068Z,10.63
2017-11-27T16:10:53.797Z,15.10
2017-11-27T16:13:21.322Z,13.60
2017-11-27T16:15:49.054Z,12.43
2017-11-27T16:18:16.785Z,10.37
2017-11-27T16:20:44.409Z,13.33
2017-11-27T16:23:11.921Z,13.23
2017-11-27T16:25:39.421Z,15.80
2017-11-27T16:28:06.926Z,11.50
2017-11-27T16:30:34.466Z,17.03
2017-11-27T16:33:02.134Z,14.87
2017-11-27T16:35:29.916Z,18.30
2017-11-27T16:37:57.413Z,18.67
2017-11-27T16:40:25.353Z,13.37
2017-11-27T16:42:52.900Z,14.07
2017-11-27T16:45:20.527Z,15.30
2017-11-27T16:47:48.772Z,16.50
2017-11-27T16:50:16.400Z,12.73
2017-11-27T16:52:43.962Z,12.43
2017-11-27T16:55:11.720Z,13.43
2017-11-27T16:57:39.238Z,17.10
2017-11-27T17:00:06.962Z,16.50
2017-11-27T17:02:34.481Z,14.63
2017-11-27T17:05:02.117Z,15.37
2017-11-27T17:07:29.633Z,15.90
2017-11-27T17:09:57.137Z,24.60
2017-11-27T17:12:24.813Z,15.90
2017-11-27T17:14:53.128Z,19.67
2017-11-27T17:17:20.656Z,17.10
2017-11-27T17:19:48.238Z,18.10
2017-11-27T17:22:16.514Z,19.03
2017-11-27T17:24:44.022Z,15.07
2017-11-27T17:27:11.532Z,19.60
2017-11-27T17:29:39.817Z,21.67
2017-11-27T17:32:07.414Z,15.53
2017-11-27T17:34:34.909Z,21.27
2017-11-27T17:37:02.428Z,16.17
2017-11-27T17:39:29.934Z,16.13
2017-11-27T17:41:57.473Z,15.30
2017-11-27T17:44:24.947Z,12.00
2017-11-27T17:46:52.522Z,17.67
2017-11-27T17:49:20.038Z,21.60
2017-11-27T17:51:47.538Z,18.10
2017-11-27T17:54:15.070Z,15.60
2017-11-27T17:56:42.569Z,12.63
2017-11-27T17:59:10.934Z,16.73
2017-11-27T18:01:39.189Z,11.87
2017-11-27T18:04:06.718Z,15.23
2017-11-27T18:06:34.589Z,9.50
2017-11-27T18:09:02.116Z,10.43
2017-11-27T18:11:29.593Z,8.80
2017-11-27T18:13:57.109Z,10.70
2017-11-27T18:16:25.437Z,11.23
2017-11-27T18:18:53.472Z,8.27
2017-11-27T18:21:20.968Z,6.10
2017-11-27T18:23:48.493Z,8.67
2017-11-27T18:26:16.178Z,6.20
2017-11-27T18:28:43.683Z,13.97
2017-11-27T18:31:11.242Z,7.47
2017-11-27T18:33:39.548Z,9.73
2017-11-27T18:36:07.113Z,6.23
2017-11-27T18:38:34.608Z,9.73
2017-11-27T18:41:02.112Z,7.57
2017-11-27T18:43:29.779Z,11.10
2017-11-27T18:45:57.393Z,13.27
2017-11-27T18:48:25.102Z,8.00
2017-11-27T18:50:52.693Z,6.33
2017-11-27T18:53:20.208Z,6.37
2017-11-27T18:55:47.750Z,10.33
2017-11-27T18:58:15.224Z,8.60
2017-11-27T19:00:43.042Z,7.83
2017-11-27T19:03:10.564Z,12.17
2017-11-27T19:05:38.073Z,11.80
2017-11-27T19:08:05.633Z,13.40
2017-11-27T19:10:33.173Z,10.77
2017-11-27T19:13:00.686Z,11.10
2017-11-27T19:15:28.214Z,11.97
2017-11-27T19:17:55.730Z,12.13
2017-11-27T19:20:23.305Z,12.90
2017-11-27T19:22:50.785Z,12.20
2017-11-27T19:25:18.324Z,13.30
2017-11-27T19:27:46.249Z,22.10
2017-11-27T19:30:13.829Z,17.30
2017-11-27T19:32:41.341Z,15.13
2017-11-27T19:35:09.645Z,15.20
2017-11-27T19:37:37.205Z,16.93
2017-11-27T19:40:04.744Z,24.00
2017-11-27T19:42:32.863Z,19.17
2017-11-27T19:45:00.361Z,23.47
2017-11-27T19:47:27.876Z,24.50
2017-11-27T19:49:55.406Z,20.73
2017-11-27T19:52:22.896Z,21.60
2017-11-27T19:54:50.433Z,20.53
2017-11-27T19:57:17.972Z,17.87
2017-11-27T19:59:45.630Z,24.20
2017-11-27T20:02:13.137Z,20.60
2017-11-27T20:04:40.632Z,17.87
2017-11-27T20:07:08.161Z,18.00
2017-11-27T20:09:35.678Z,27.80
2017-11-27T20:12:03.208Z,25.90
2017-11-27T20:14:30.729Z,21.20
2017-11-27T20:16:58.266Z,15.60
2017-11-27T20:19:25.873Z,19.63
2017-11-27T20:21:53.377Z,14.40
2017-11-27T20:24:20.879Z,16.97
2017-11-27T20:26:48.401Z,18.80
2017-11-27T20:29:16.122Z,21.53
2017-11-27T20:31:43.853Z,21.83
2017-11-27T20:34:11.361Z,21.17
2017-11-27T20:36:38.857Z,16.73
2017-11-27T20:39:06.405Z,21.40
2017-11-27T20:41:33.926Z,22.50
2017-11-27T20:44:01.450Z,22.93
2017-11-27T20:46:29.187Z,15.97
2017-11-27T20:48:58.012Z,18.93
2017-11-27T20:51:27.350Z,18.93
2017-11-27T20:53:56.108Z,24.70
2017-11-27T20:56:23.628Z,19.20
2017-11-27T20:58:51.146Z,18.70
2017-11-27T21:01:18.670Z,16.53
2017-11-27T21:03:46.969Z,19.67
2017-11-27T21:06:14.532Z,20.30
2017-11-27T21:08:42.041Z,13.13
2017-11-27T21:11:09.601Z,15.13
2017-11-27T21:13:37.141Z,14.30
2017-11-27T21:16:04.637Z,15.73
2017-11-27T21:18:33.210Z,13.97
2017-11-27T21:21:00.722Z,9.43
2017-11-27T21:23:28.342Z,25.80
2017-11-27T21:25:55.926Z,13.77
2017-11-27T21:28:23.435Z,13.00
2017-11-27T21:30:51.106Z,10.40
2017-11-27T21:33:18.606Z,11.43
2017-11-27T21:35:46.217Z,6.77
2017-11-27T21:38:13.734Z,6.63
2017-11-27T21:40:41.266Z,10.70
2017-11-27T21:43:08.828Z,10.90
2017-11-27T21:45:37.303Z,11.20
2017-11-27T21:48:04.804Z,7.37
2017-11-27T21:50:32.348Z,16.30
2017-11-27T21:52:59.904Z,11.50
2017-11-27T21:55:27.434Z,7.40
2017-11-27T21:57:54.977Z,13.50
2017-11-27T22:00:23.126Z,6.90
2017-11-27T22:02:50.625Z,9.47
2017-11-27T22:05:18.893Z,18.87
2017-11-27T22:07:46.408Z,10.93
2017-11-27T22:10:13.917Z,17.47
2017-11-27T22:12:42.559Z,12.20
2017-11-27T22:15:10.118Z,16.53
2017-11-27T22:17:39.630Z,14.20
2017-11-27T22:20:07.437Z,11.17
2017-11-27T22:22:35.790Z,23.30
2017-11-27T22:25:04.413Z,14.73
2017-11-27T22:27:31.989Z,13.27
2017-11-27T22:29:59.569Z,10.60
2017-11-27T22:32:27.104Z,10.27
2017-11-27T22:34:54.605Z,10.60
2017-11-27T22:37:22.134Z,10.40
2017-11-27T22:39:49.693Z,5.40
2017-11-27T22:42:17.185Z,8.63
2017-11-27T22:44:44.916Z,5.30
2017-11-27T22:47:12.415Z,5.50
2017-11-27T22:49:39.953Z,2.97
2017-11-27T22:52:07.448Z,12.87
2017-11-27T22:54:34.994Z,7.63
2017-11-27T22:57:02.517Z,7.10
2017-11-27T22:59:30.248Z,12.40
2017-11-27T23:01:57.902Z,4.97
2017-11-27T23:04:25.438Z,7.87
2017-11-27T23:06:52.944Z,11.30
2017-11-27T23:09:20.537Z,14.07
2017-11-27T23:11:49.010Z,6.77
2017-11-27T23:14:16.570Z,11.80
2017-11-27T23:16:44.841Z,4.70
2017-11-27T23:19:12.336Z,8.23
2017-11-27T23:21:39.837Z,4.47
2017-11-27T23:24:07.329Z,7.17
2017-11-27T23:26:35.077Z,6.80
2017-11-27T23:29:02.598Z,9.10
2017-11-27T23:31:30.101Z,8.93
2017-11-27T23:33:58.649Z,13.13
2017-11-27T23:36:26.164Z,5.93
2017-11-27T23:38:53.661Z,4.40
2017-11-27T23:41:21.167Z,7.37
2017-11-27T23:43:49.429Z,8.90
2017-11-27T23:46:17.109Z,7.60
2017-11-27T23:48:44.664Z,5.90
2017-11-27T23:51:12.183Z,11.63
2017-11-27T23:53:39.678Z,9.13
2017-11-27T23:56:08.224Z,2.47
2017-11-27T23:58:35.781Z,9.20
